createdAt,value
2018-07-26T00:01:30.379Z,40.02
2018-07-26T00:06:33.959Z,39.92
2018-07-26T00:11:37.729Z,39.92
2018-07-26T00:16:41.514Z,39.93
2018-07-26T00:21:45.060Z,39.89
2018-07-26T00:26:48.439Z,39.91
2018-07-26T00:31:52.105Z,39.87
2018-07-26T00:36:55.617Z,39.87
2018-07-26T00:41:59.202Z,39.88
2018-07-26T00:47:02.653Z,39.85
2018-07-26T00:52:06.654Z,39.85
2018-07-26T00:57:10.622Z,39.84
2018-07-26T01:02:14.218Z,39.81
2018-07-26T01:07:17.711Z,39.80
2018-07-26T01:12:21.405Z,39.81
2018-07-26T01:17:25.065Z,39.81
2018-07-26T01:22:28.581Z,39.79
2018-07-26T01:27:32.358Z,39.78
2018-07-26T01:32:35.833Z,39.72
2018-07-26T01:37:39.592Z,39.74
2018-07-26T01:44:52.417Z,39.70
2018-07-26T01:49:55.971Z,39.08
2018-07-26T01:54:59.456Z,39.46
2018-07-26T02:00:03.116Z,39.55
2018-07-26T02:05:07.653Z,39.63
2018-07-26T02:10:11.672Z,39.63
2018-07-26T02:15:15.602Z,39.65
2018-07-26T02:20:19.277Z,39.66
2018-07-26T02:25:22.813Z,39.61
2018-07-26T02:30:26.287Z,39.62
2018-07-26T02:35:29.964Z,39.61
2018-07-26T02:40:33.494Z,39.62
2018-07-26T02:45:37.820Z,39.63
2018-07-26T02:50:41.640Z,39.58
2018-07-26T02:55:45.156Z,39.57
2018-07-26T03:00:48.777Z,39.63
2018-07-26T03:05:52.253Z,39.61
2018-07-26T03:10:55.817Z,39.59
2018-07-26T03:15:59.373Z,39.59
2018-07-26T03:21:02.862Z,39.51
2018-07-26T03:26:06.441Z,39.50
2018-07-26T03:31:10.501Z,39.49
2018-07-26T03:36:14.052Z,39.46
2018-07-26T03:41:17.493Z,39.48
2018-07-26T03:46:20.993Z,39.47
2018-07-26T03:51:24.646Z,39.53
2018-07-26T03:56:28.217Z,39.46
2018-07-26T04:01:31.741Z,39.42
2018-07-26T04:06:35.273Z,39.44
2018-07-26T04:11:38.825Z,39.46
2018-07-26T04:16:42.363Z,39.34
2018-07-26T04:21:46.136Z,39.25
2018-07-26T04:26:49.840Z,39.19
2018-07-26T04:31:53.685Z,39.15
2018-07-26T04:36:57.391Z,39.13
2018-07-26T04:42:00.861Z,39.04
2018-07-26T04:47:04.458Z,38.93
2018-07-26T04:52:08.000Z,38.94
2018-07-26T04:57:11.597Z,39.03
2018-07-26T05:02:15.138Z,38.99
2018-07-26T05:07:19.188Z,39.01
2018-07-26T05:12:22.630Z,39.06
2018-07-26T05:17:26.278Z,38.98
2018-07-26T05:22:29.751Z,39.02
2018-07-26T05:27:33.317Z,39.11
2018-07-26T05:32:36.864Z,39.14
2018-07-26T05:37:40.605Z,39.17
2018-07-26T05:42:44.545Z,39.27
2018-07-26T05:47:48.010Z,39.32
2018-07-26T05:52:51.517Z,39.29
2018-07-26T05:57:54.985Z,39.43
2018-07-26T06:02:58.683Z,39.45
2018-07-26T06:08:02.327Z,39.48
2018-07-26T06:13:06.345Z,39.47
2018-07-26T06:18:09.964Z,39.47
2018-07-26T06:23:13.472Z,39.50
2018-07-26T06:28:17.041Z,39.54
2018-07-26T06:33:20.723Z,39.52
2018-07-26T06:38:24.222Z,39.51
2018-07-26T06:43:27.778Z,39.56
2018-07-26T06:48:31.319Z,39.52
2018-07-26T06:53:35.094Z,39.51
2018-07-26T06:58:38.564Z,39.49
2018-07-26T07:03:42.038Z,40.17
2018-07-26T07:08:45.738Z,40.68
2018-07-26T07:13:49.255Z,40.83
2018-07-26T07:18:52.836Z,40.88
2018-07-26T07:23:56.321Z,40.93
2018-07-26T07:28:59.813Z,40.96
2018-07-26T07:34:03.579Z,40.95
2018-07-26T07:39:10.174Z,40.89
2018-07-26T07:44:13.755Z,40.93
2018-07-26T07:49:17.209Z,40.92
2018-07-26T07:54:20.636Z,40.96
2018-07-26T07:59:24.459Z,40.37
2018-07-26T08:04:28.200Z,40.85
2018-07-26T08:09:31.617Z,40.94
2018-07-26T08:14:35.090Z,40.99
2018-07-26T08:19:39.157Z,40.98
2018-07-26T08:24:43.881Z,41.01
2018-07-26T08:29:47.421Z,41.07
2018-07-26T08:34:51.121Z,41.13
2018-07-26T08:39:55.054Z,41.08
2018-07-26T08:44:58.514Z,41.13
2018-07-26T08:50:02.232Z,41.14
2018-07-26T08:55:05.892Z,41.08
2018-07-26T09:00:10.169Z,41.10
2018-07-26T09:05:14.037Z,41.10
2018-07-26T09:10:17.992Z,41.16
2018-07-26T09:15:21.799Z,41.11
2018-07-26T09:20:25.338Z,41.15
2018-07-26T09:25:28.942Z,41.12
2018-07-26T09:30:32.644Z,41.13
2018-07-26T09:35:36.324Z,41.11
2018-07-26T09:40:39.864Z,41.16
2018-07-26T09:45:43.441Z,41.23
2018-07-26T09:50:47.088Z,41.20
2018-07-26T09:55:51.261Z,41.16
2018-07-26T10:01:00.186Z,41.20
2018-07-26T10:06:03.838Z,41.21
2018-07-26T10:11:07.522Z,41.21
2018-07-26T10:16:11.495Z,41.26
2018-07-26T10:21:15.430Z,41.27
2018-07-26T10:26:18.967Z,41.26
2018-07-26T10:31:22.633Z,41.31
2018-07-26T10:36:26.338Z,41.33
2018-07-26T10:41:29.870Z,41.35
2018-07-26T10:46:33.374Z,41.34
2018-07-26T10:51:36.964Z,39.42
2018-07-26T10:56:40.441Z,39.26
2018-07-26T11:01:44.111Z,38.27
2018-07-26T11:06:47.653Z,38.96
2018-07-26T11:11:51.110Z,38.70
2018-07-26T11:16:55.101Z,38.80
2018-07-26T11:21:58.819Z,38.54
2018-07-26T11:27:02.633Z,37.92
2018-07-26T11:32:06.340Z,38.50
2018-07-26T11:37:09.946Z,38.52
2018-07-26T11:42:13.709Z,37.47
2018-07-26T11:47:17.165Z,38.01
2018-07-26T11:52:20.965Z,38.49
2018-07-26T11:57:25.162Z,38.08
2018-07-26T12:02:28.847Z,38.48
2018-07-26T12:07:32.587Z,38.27
2018-07-26T12:12:36.353Z,38.21
2018-07-26T12:17:39.954Z,38.65
2018-07-26T12:22:43.960Z,38.06
2018-07-26T12:27:47.459Z,38.38
2018-07-26T12:32:51.032Z,38.75
2018-07-26T12:37:54.617Z,38.47
2018-07-26T12:42:58.290Z,38.76
2018-07-26T12:48:01.818Z,38.94
2018-07-26T12:53:05.691Z,37.87
2018-07-26T12:58:09.665Z,38.73
2018-07-26T13:03:13.273Z,38.99
2018-07-26T13:08:16.928Z,38.72
2018-07-26T13:13:20.458Z,38.76
2018-07-26T13:18:24.442Z,38.76
2018-07-26T13:23:27.929Z,38.79
2018-07-26T13:28:31.617Z,38.39
2018-07-26T13:33:35.103Z,38.45
2018-07-26T13:38:38.661Z,38.04
2018-07-26T13:43:42.471Z,37.98
2018-07-26T13:48:46.385Z,37.96
2018-07-26T13:53:49.889Z,38.20
2018-07-26T13:58:53.345Z,38.29
2018-07-26T14:03:56.977Z,38.66
2018-07-26T14:09:00.394Z,38.38
2018-07-26T14:14:03.842Z,38.76
2018-07-26T14:19:08.423Z,38.51
2018-07-26T14:24:17.435Z,38.34
2018-07-26T14:29:21.696Z,38.93
2018-07-26T14:34:25.664Z,38.40
2018-07-26T14:39:29.262Z,38.17
2018-07-26T14:44:32.847Z,38.03
2018-07-26T14:49:36.427Z,38.18
2018-07-26T14:54:39.950Z,38.00
2018-07-26T14:59:43.490Z,38.74
2018-07-26T15:04:47.093Z,38.48
2018-07-26T15:09:50.740Z,38.58
2018-07-26T15:14:54.209Z,38.76
2018-07-26T15:19:58.067Z,39.02
2018-07-26T15:25:01.607Z,38.17
2018-07-26T15:30:06.119Z,38.34
2018-07-26T15:35:09.643Z,39.99
2018-07-26T15:40:13.672Z,40.87
2018-07-26T15:45:17.812Z,41.19
2018-07-26T15:50:21.920Z,41.02
2018-07-26T15:55:25.540Z,41.44
2018-07-26T16:00:29.451Z,41.35
2018-07-26T16:05:33.061Z,40.89
2018-07-26T16:10:36.527Z,41.50
2018-07-26T16:15:40.661Z,40.20
2018-07-26T16:20:44.202Z,39.89
2018-07-26T16:25:47.714Z,39.82
2018-07-26T16:30:51.172Z,39.93
2018-07-26T16:35:54.885Z,40.00
2018-07-26T16:40:58.375Z,39.00
2018-07-26T16:46:02.739Z,38.80
2018-07-26T16:51:06.437Z,38.36
2018-07-26T16:56:10.184Z,39.80
2018-07-26T17:01:13.754Z,41.40
2018-07-26T17:06:17.225Z,41.80
2018-07-26T17:11:20.711Z,42.01
2018-07-26T17:16:24.262Z,42.12
2018-07-26T17:21:28.066Z,42.17
2018-07-26T17:26:31.845Z,42.24
2018-07-26T17:31:35.653Z,42.27
2018-07-26T17:36:39.440Z,42.25
2018-07-26T17:41:43.340Z,42.26
2018-07-26T17:46:46.993Z,42.30
2018-07-26T17:51:50.465Z,42.28
2018-07-26T17:56:54.316Z,42.19
2018-07-26T18:01:57.927Z,42.30
2018-07-26T18:07:01.951Z,42.37
2018-07-26T18:12:05.410Z,42.42
2018-07-26T18:17:08.883Z,42.38
2018-07-26T18:22:12.431Z,42.30
2018-07-26T18:27:15.825Z,42.26
2018-07-26T18:32:19.546Z,42.34
2018-07-26T18:37:23.049Z,42.38
2018-07-26T18:42:26.978Z,42.49
2018-07-26T18:47:30.717Z,42.56
2018-07-26T18:52:34.179Z,42.64
2018-07-26T18:57:39.054Z,42.64
2018-07-26T19:02:43.938Z,42.52
2018-07-26T19:07:48.688Z,42.46
2018-07-26T19:12:52.691Z,42.38
2018-07-26T19:17:57.378Z,42.41
2018-07-26T19:23:00.952Z,42.38
2018-07-26T19:28:04.573Z,42.44
2018-07-26T19:33:08.362Z,42.43
2018-07-26T19:38:12.300Z,42.45
2018-07-26T19:43:16.285Z,42.48
2018-07-26T19:48:19.754Z,42.25
2018-07-26T19:53:23.181Z,42.56
2018-07-26T19:58:27.236Z,42.53
2018-07-26T20:03:30.782Z,42.29
2018-07-26T20:08:34.633Z,42.16
2018-07-26T20:13:38.784Z,42.37
2018-07-26T20:18:42.279Z,42.42
2018-07-26T20:23:45.983Z,42.48
2018-07-26T20:28:49.774Z,42.52
2018-07-26T20:33:53.345Z,42.48
2018-07-26T20:38:57.569Z,42.32
2018-07-26T20:44:02.047Z,42.06
2018-07-26T20:49:05.715Z,42.17
2018-07-26T20:54:09.772Z,42.09
2018-07-26T20:59:13.983Z,41.98
2018-07-26T21:04:17.394Z,41.87
2018-07-26T21:09:21.263Z,41.81
2018-07-26T21:14:24.760Z,41.78
2018-07-26T21:19:28.422Z,41.90
2018-07-26T21:24:32.689Z,42.03
2018-07-26T21:29:36.313Z,42.06
2018-07-26T21:34:39.949Z,42.08
2018-07-26T21:39:43.405Z,42.06
2018-07-26T21:44:47.141Z,42.04
2018-07-26T21:49:51.021Z,41.96
2018-07-26T21:54:55.217Z,41.98
2018-07-26T21:59:58.750Z,42.01
2018-07-26T22:05:02.347Z,41.99
2018-07-26T22:10:06.201Z,41.99
2018-07-26T22:15:09.648Z,42.00
2018-07-26T22:20:13.519Z,41.94
2018-07-26T22:25:16.941Z,41.93
2018-07-26T22:30:20.876Z,41.90
2018-07-26T22:35:24.436Z,41.88
2018-07-26T22:40:28.191Z,41.87
2018-07-26T22:45:31.811Z,41.86
2018-07-26T22:50:35.304Z,41.82
2018-07-26T22:55:38.872Z,41.88
2018-07-26T23:00:42.671Z,41.84
2018-07-26T23:05:46.148Z,41.82
2018-07-26T23:10:49.797Z,41.84
2018-07-26T23:15:53.416Z,41.83
2018-07-26T23:20:56.834Z,41.73
2018-07-26T23:26:00.540Z,41.77
2018-07-26T23:31:04.168Z,41.80
2018-07-26T23:36:07.749Z,41.76
2018-07-26T23:41:11.308Z,41.70
2018-07-26T23:46:15.007Z,41.65
2018-07-26T23:51:18.638Z,41.66
2018-07-26T23:56:22.112Z,41.65
